Time;durP1;ratioP1;P1;durP2;ratioP2;P2;SDS_P1;SDS_P2;PMS_P1;PMS_P2;Temp;Humidity;BMP_temperature;BMP_pressure;BME280_temperature;BME280_humidity;BME280_pressure;Samples;Min_cycle;Max_cycle;Signal;HPM_P1;HPM_P2
2021/04/25 00:02:25;;;;;;;8.30;4.67;;;;;;;1.58;72.86;100724.94;1785474;80;21323;-84
2021/04/25 00:05:30;;;;;;;12.00;5.37;;;;;;;1.58;72.65;100724.94;1763173;80;21918;-84
2021/04/25 00:08:36;;;;;;;10.05;5.15;;;;;;;1.58;72.45;100722.73;1779980;80;21913;-84
2021/04/25 00:11:41;;;;;;;7.58;4.78;;;;;;;1.57;72.36;100719.66;1779318;80;21189;-84
2021/04/25 00:14:47;;;;;;;7.60;4.58;;;;;;;1.54;72.27;100722.94;1779965;80;21260;-84
2021/04/25 00:17:58;;;;;;;9.05;4.58;;;;;;;1.53;72.26;100721.22;1748374;80;21835;-84
2021/04/25 00:21:04;;;;;;;11.05;4.62;;;;;;;1.52;72.23;100728.94;1778226;80;21157;-83
2021/04/25 00:24:11;;;;;;;8.45;4.35;;;;;;;1.51;72.10;100725.02;1765113;80;21699;-84
2021/04/25 00:27:17;;;;;;;8.70;4.62;;;;;;;1.48;72.12;100721.17;1779733;80;21275;-84
2021/04/25 00:30:25;;;;;;;7.80;4.78;;;;;;;1.45;72.07;100714.16;1780049;80;21284;-83
2021/04/25 00:33:31;;;;;;;7.00;4.28;;;;;;;1.41;72.13;100707.73;1779927;80;21319;-84
2021/04/25 00:36:40;;;;;;;8.68;4.47;;;;;;;1.38;72.18;100704.78;1778439;80;21708;-84
2021/04/25 00:39:47;;;;;;;7.75;4.53;;;;;;;1.36;72.29;100708.55;1780043;80;21154;-84
2021/04/25 00:42:54;;;;;;;7.72;4.03;;;;;;;1.31;72.32;100704.83;1764952;80;21165;-84
2021/04/25 00:46:00;;;;;;;6.83;4.25;;;;;;;1.26;72.49;100711.02;1779976;80;21272;-84
2021/04/25 00:49:06;;;;;;;10.50;4.37;;;;;;;1.17;72.72;100704.92;1761409;80;21502;-84
2021/04/25 00:52:14;;;;;;;8.08;4.58;;;;;;;1.09;73.05;100702.78;1779887;80;21291;-84
2021/04/25 00:55:22;;;;;;;7.60;4.22;;;;;;;1.01;73.27;100703.79;1779967;80;21134;-83
2021/04/25 00:58:29;;;;;;;8.98;4.55;;;;;;;0.93;73.54;100704.79;1779721;80;21180;-83
2021/04/25 01:01:35;;;;;;;7.53;4.35;;;;;;;0.86;73.67;100703.02;1779887;80;21272;-83
2021/04/25 01:04:41;;;;;;;6.62;4.37;;;;;;;0.81;73.71;100703.81;1779841;80;21287;-83
2021/04/25 01:07:48;;;;;;;9.78;5.08;;;;;;;0.79;73.75;100705.73;1742393;80;21295;-84
2021/04/25 01:10:54;;;;;;;7.72;4.42;;;;;;;0.82;73.72;100707.37;1761501;80;21271;-84
2021/04/25 01:13:59;;;;;;;7.17;4.37;;;;;;;0.82;73.71;100710.06;1761453;80;21292;-84
2021/04/25 01:17:05;;;;;;;7.67;4.85;;;;;;;0.82;73.72;100707.37;1780072;80;21259;-84
2021/04/25 01:20:11;;;;;;;9.45;5.30;;;;;;;0.83;73.66;100707.74;1780006;80;21268;-84
2021/04/25 01:23:17;;;;;;;8.98;4.90;;;;;;;0.83;73.65;100709.95;1779919;80;21220;-84
2021/04/25 01:26:21;;;;;;;6.85;4.90;;;;;;;0.82;73.65;100704.19;1780048;80;21710;-84
2021/04/25 01:29:28;;;;;;;11.80;4.97;;;;;;;0.80;73.79;100703.90;1779804;80;21268;-83
2021/04/25 01:32:32;;;;;;;8.70;5.25;;;;;;;0.80;74.13;100697.16;1779631;80;21173;-84
2021/04/25 01:35:38;;;;;;;10.63;5.62;;;;;;;0.79;74.20;100703.52;1780017;80;21257;-83
2021/04/25 01:38:43;;;;;;;9.33;4.92;;;;;;;0.83;74.20;100696.48;1764766;80;21287;-84
2021/04/25 01:41:48;;;;;;;12.18;5.00;;;;;;;0.88;74.16;100702.90;1761643;80;21185;-83
2021/04/25 01:44:53;;;;;;;8.93;5.28;;;;;;;0.93;74.21;100707.00;1780137;80;21695;-84
2021/04/25 01:48:00;;;;;;;11.88;5.37;;;;;;;0.97;74.04;100704.96;1780086;80;21193;-84
2021/04/25 01:51:06;;;;;;;9.08;4.92;;;;;;;0.98;73.74;100707.55;1780133;80;21307;-84
2021/04/25 01:54:12;;;;;;;8.63;4.75;;;;;;;0.98;73.44;100708.89;1763941;80;21219;-84
2021/04/25 01:57:17;;;;;;;9.80;5.60;;;;;;;0.95;73.42;100708.27;1780035;80;21323;-83
2021/04/25 02:00:28;;;;;;;8.40;5.53;;;;;;;0.92;73.48;100707.11;1780054;80;21153;-84
2021/04/25 02:03:33;;;;;;;17.27;6.17;;;;;;;0.93;73.28;100708.83;1778950;80;21303;-84
2021/04/25 02:06:41;;;;;;;14.43;6.35;;;;;;;0.97;73.08;100707.66;1776328;80;21897;-84
2021/04/25 02:09:47;;;;;;;11.90;5.85;;;;;;;1.02;72.65;100702.81;1762803;81;21707;-84
2021/04/25 02:12:54;;;;;;;10.38;5.47;;;;;;;1.08;72.29;100713.16;1744348;81;21288;-84
2021/04/25 02:15:59;;;;;;;11.15;5.75;;;;;;;1.14;71.90;100711.90;1763509;81;21754;-83
2021/04/25 02:19:05;;;;;;;14.93;5.60;;;;;;;1.16;71.62;100712.16;1763355;81;21300;-84
2021/04/25 02:22:12;;;;;;;16.73;5.92;;;;;;;1.20;71.71;100720.41;1771585;81;21292;-84
2021/04/25 02:25:18;;;;;;;18.50;8.20;;;;;;;1.20;71.83;100721.75;1763436;81;21857;-84
2021/04/25 02:28:25;;;;;;;10.35;5.33;;;;;;;1.20;71.81;100717.71;1762824;81;21293;-84
2021/04/25 02:31:32;;;;;;;12.73;5.97;;;;;;;1.16;71.66;100720.23;1762859;81;21216;-84
2021/04/25 02:34:39;;;;;;;10.30;5.97;;;;;;;1.12;71.62;100721.90;1771869;81;21264;-84
2021/04/25 02:37:45;;;;;;;11.22;5.47;;;;;;;1.04;71.96;100721.10;1771775;81;21165;-84
2021/04/25 02:40:50;;;;;;;11.05;6.50;;;;;;;0.97;72.34;100721.13;1771805;81;21264;-84
2021/04/25 02:43:56;;;;;;;13.85;7.22;;;;;;;0.91;72.77;100721.07;1743808;81;21692;-84
2021/04/25 02:47:03;;;;;;;13.03;6.08;;;;;;;0.94;73.04;100720.88;1745107;81;21184;-84
2021/04/25 02:50:08;;;;;;;19.02;6.50;;;;;;;1.06;72.87;100723.19;1771886;81;21196;-84
2021/04/25 02:53:14;;;;;;;16.48;7.17;;;;;;;1.24;72.40;100725.96;1771904;81;21825;-84
2021/04/25 02:56:22;;;;;;;12.03;5.97;;;;;;;1.45;71.90;100726.77;1771885;81;21276;-84
2021/04/25 02:59:28;;;;;;;12.63;6.75;;;;;;;1.71;71.34;100724.45;1763485;81;21292;-84
2021/04/25 03:02:36;;;;;;;14.15;7.45;;;;;;;1.94;70.55;100734.08;1771793;81;21323;-84
2021/04/25 03:05:42;;;;;;;15.40;6.15;;;;;;;2.09;69.76;100733.45;1761685;81;21200;-84
2021/04/25 03:08:47;;;;;;;15.63;7.62;;;;;;;2.18;69.23;100740.88;1770637;81;21216;-84
2021/04/25 03:11:52;;;;;;;15.20;6.50;;;;;;;2.25;68.90;100737.59;1762955;81;21268;-84
2021/04/25 03:14:58;;;;;;;11.33;6.90;;;;;;;2.35;68.61;100744.53;1763399;81;21208;-84
2021/04/25 03:18:05;;;;;;;15.58;7.67;;;;;;;2.47;68.40;100750.88;1771933;81;21761;-84
2021/04/25 03:21:10;;;;;;;12.35;6.80;;;;;;;2.62;68.23;100745.67;1771834;81;21271;-84
2021/04/25 03:24:19;;;;;;;18.25;7.80;;;;;;;2.80;67.88;100742.09;1771841;81;21146;-84
2021/04/25 03:27:24;;;;;;;18.77;7.85;;;;;;;2.98;67.72;100742.53;1771817;81;21192;-84
2021/04/25 03:30:29;;;;;;;16.70;7.17;;;;;;;3.17;67.53;100750.95;1727703;81;21180;-84
2021/04/25 03:33:34;;;;;;;11.80;6.12;;;;;;;3.38;67.21;100752.96;1771677;81;21846;-84
2021/04/25 03:36:40;;;;;;;14.65;7.05;;;;;;;3.53;66.88;100748.59;1771840;81;21264;-84
2021/04/25 03:39:46;;;;;;;17.00;7.92;;;;;;;3.61;66.75;100756.58;1771798;81;21803;-85
2021/04/25 03:42:53;;;;;;;12.63;7.62;;;;;;;3.66;66.80;100757.07;1771809;81;21221;-85
2021/04/25 03:45:59;;;;;;;12.73;6.75;;;;;;;3.71;66.87;100765.19;1771633;81;21363;-84
2021/04/25 03:49:06;;;;;;;20.95;6.60;;;;;;;3.76;66.83;100771.59;1763506;81;21311;-84
2021/04/25 03:52:14;;;;;;;13.72;7.03;;;;;;;3.82;66.51;100777.39;1771741;81;21490;-84
2021/04/25 03:55:22;;;;;;;26.85;7.55;;;;;;;3.91;66.17;100783.07;1771514;81;21790;-84
2021/04/25 03:58:30;;;;;;;15.72;7.67;;;;;;;4.01;65.91;100780.84;1744567;81;21295;-84
2021/04/25 04:01:36;;;;;;;13.70;7.25;;;;;;;4.11;65.88;100785.03;1771718;81;21260;-85
2021/04/25 04:04:42;;;;;;;15.88;7.15;;;;;;;4.27;65.76;100785.50;1771695;81;21272;-84
2021/04/25 04:07:48;;;;;;;12.95;6.65;;;;;;;4.43;65.73;100783.78;1771763;81;21311;-83
2021/04/25 04:10:56;;;;;;;11.85;6.15;;;;;;;4.63;65.72;100788.91;1779948;80;21153;-84
2021/04/25 04:14:01;;;;;;;12.20;6.67;;;;;;;4.80;65.45;100780.75;1779877;80;21300;-84
2021/04/25 04:17:07;;;;;;;15.28;6.65;;;;;;;4.98;65.79;100776.47;1779355;80;21288;-84
2021/04/25 04:20:16;;;;;;;11.48;6.12;;;;;;;5.20;65.31;100776.03;1779621;80;21593;-84
2021/04/25 04:23:22;;;;;;;11.90;6.17;;;;;;;5.44;65.05;100778.48;1779964;80;21647;-84
2021/04/25 04:26:28;;;;;;;17.05;6.75;;;;;;;5.63;64.80;100776.77;1780002;80;21272;-85
2021/04/25 04:29:34;;;;;;;14.95;6.37;;;;;;;5.78;63.95;100781.34;1780097;80;21159;-84
2021/04/25 04:32:40;;;;;;;19.17;6.30;;;;;;;5.96;62.18;100783.48;1779356;80;21723;-85
2021/04/25 04:35:45;;;;;;;13.43;6.10;;;;;;;6.13;61.40;100788.30;1779922;80;21212;-84
2021/04/25 04:38:50;;;;;;;11.10;4.97;;;;;;;6.37;60.94;100792.03;1779747;80;21185;-85
2021/04/25 04:41:56;;;;;;;8.78;4.78;;;;;;;6.61;60.57;100789.81;1779804;80;21264;-84
2021/04/25 04:45:03;;;;;;;12.70;4.78;;;;;;;6.82;60.22;100784.30;1779969;80;21153;-84
2021/04/25 04:48:09;;;;;;;6.78;3.62;;;;;;;7.02;59.34;100777.02;1763872;80;21208;-84
2021/04/25 04:51:16;;;;;;;7.70;3.40;;;;;;;7.15;57.85;100773.52;1779389;80;21173;-84
2021/04/25 04:54:20;;;;;;;6.70;3.47;;;;;;;7.23;56.23;100771.42;1780099;80;21814;-85
2021/04/25 04:57:26;;;;;;;5.72;3.25;;;;;;;7.27;55.81;100774.22;1761255;80;21318;-84
2021/04/25 05:00:32;;;;;;;6.70;3.47;;;;;;;7.29;55.42;100773.59;1779914;80;21296;-85
2021/04/25 05:03:37;;;;;;;7.20;3.55;;;;;;;7.38;55.60;100777.28;1779843;80;21303;-85
2021/04/25 05:06:44;;;;;;;7.95;3.58;;;;;;;7.48;55.28;100778.16;1779966;80;21260;-85
2021/04/25 05:09:50;;;;;;;5.12;2.77;;;;;;;7.57;52.90;100769.59;1775844;80;21327;-85
2021/04/25 05:12:55;;;;;;;9.75;3.40;;;;;;;7.60;53.01;100776.12;1771721;81;21307;-85
2021/04/25 05:16:02;;;;;;;7.28;3.47;;;;;;;7.66;51.68;100775.53;1771536;81;21300;-85
2021/04/25 05:19:08;;;;;;;9.50;3.30;;;;;;;7.73;51.84;100775.31;1771240;81;21291;-85
2021/04/25 05:22:15;;;;;;;7.28;3.00;;;;;;;7.83;51.45;100774.78;1771730;81;21359;-85
2021/04/25 05:25:21;;;;;;;4.67;3.00;;;;;;;7.95;51.72;100770.00;1771695;81;21273;-85
2021/04/25 05:28:29;;;;;;;6.28;3.10;;;;;;;8.03;51.15;100774.72;1771752;81;21300;-85
2021/04/25 05:31:34;;;;;;;6.30;2.45;;;;;;;8.12;50.09;100771.95;1771710;81;21220;-85
2021/04/25 05:34:40;;;;;;;6.30;2.12;;;;;;;8.22;49.50;100769.19;1771743;81;21312;-85
2021/04/25 05:37:45;;;;;;;4.12;2.05;;;;;;;8.32;49.88;100769.15;1771774;81;21169;-85
2021/04/25 05:40:54;;;;;;;4.97;1.90;;;;;;;8.39;48.45;100769.80;1771713;81;21271;-85
2021/04/25 05:43:59;;;;;;;3.05;2.12;;;;;;;8.54;48.47;100767.93;1771815;81;21834;-85
2021/04/25 05:47:04;;;;;;;2.70;1.67;;;;;;;8.73;48.00;100766.96;1771543;81;21193;-85
2021/04/25 05:50:10;;;;;;;6.03;2.25;;;;;;;8.89;47.59;100763.91;1771634;81;21154;-85
2021/04/25 05:53:17;;;;;;;4.17;2.10;;;;;;;9.08;47.41;100767.01;1771771;81;21659;-85
2021/04/25 05:56:23;;;;;;;3.40;2.17;;;;;;;9.21;46.70;100764.72;1771752;81;21292;-85
2021/04/25 05:59:30;;;;;;;2.65;1.65;;;;;;;9.30;46.32;100768.38;1771594;81;21169;-84
2021/04/25 06:02:36;;;;;;;4.95;1.87;;;;;;;9.39;45.60;100766.08;1771720;81;21275;-85
2021/04/25 06:05:41;;;;;;;4.40;2.15;;;;;;;9.53;45.92;100774.73;1771563;81;21252;-85
2021/04/25 06:08:47;;;;;;;6.92;2.10;;;;;;;9.70;45.17;100775.21;1771687;81;21327;-84
2021/04/25 06:11:52;;;;;;;4.45;1.92;;;;;;;9.78;44.38;100768.42;1770551;81;21232;-85
2021/04/25 06:14:57;;;;;;;3.47;2.08;;;;;;;9.79;44.49;100772.89;1771760;81;21661;-85
2021/04/25 06:18:03;;;;;;;5.40;2.72;;;;;;;9.88;45.17;100773.30;1771735;81;21162;-85
2021/04/25 06:21:09;;;;;;;4.28;2.20;;;;;;;10.04;44.68;100776.63;1771796;81;21276;-85
2021/04/25 06:24:16;;;;;;;3.27;2.08;;;;;;;10.17;44.87;100772.95;1771703;81;21316;-85
2021/04/25 06:27:23;;;;;;;3.70;2.02;;;;;;;10.32;46.44;100775.97;1771460;81;21208;-85
2021/04/25 06:30:29;;;;;;;5.85;1.65;;;;;;;10.42;43.40;100779.42;1771450;81;21866;-85
2021/04/25 06:33:35;;;;;;;6.35;2.10;;;;;;;10.41;44.10;100780.45;1771492;81;21286;-85
2021/04/25 06:36:43;;;;;;;3.77;2.50;;;;;;;10.43;43.43;100786.60;1771803;81;21174;-85
2021/04/25 06:39:49;;;;;;;5.10;2.17;;;;;;;10.33;43.04;100774.94;1771550;81;21271;-85
2021/04/25 06:42:55;;;;;;;5.92;2.45;;;;;;;10.42;44.17;100773.10;1771795;81;21331;-86
2021/04/25 06:45:54;;;;;;;5.60;2.70;;;;;;;10.63;45.30;100771.30;1771589;81;21276;-84
2021/04/25 06:48:46;;;;;;;3.95;2.20;;;;;;;10.83;45.76;100767.79;1771324;81;21157;-85
2021/04/25 06:51:47;;;;;;;5.58;2.77;;;;;;;10.98;44.43;100771.06;1771779;81;21269;-85
2021/04/25 06:54:52;;;;;;;5.25;2.50;;;;;;;11.14;45.00;100766.64;1771303;81;21260;-86
2021/04/25 06:57:58;;;;;;;4.22;2.90;;;;;;;11.30;43.74;100768.56;1771174;81;21819;-85
2021/04/25 07:01:03;;;;;;;6.45;3.17;;;;;;;11.41;43.25;100769.06;1771932;81;21263;-85
2021/04/25 07:04:09;;;;;;;4.85;2.60;;;;;;;11.43;44.72;100770.25;1771775;81;21811;-85
2021/04/25 07:07:15;;;;;;;5.25;2.70;;;;;;;11.55;44.34;100766.67;1771724;81;21303;-85
2021/04/25 07:10:22;;;;;;;5.12;2.80;;;;;;;11.60;44.28;100763.75;1763418;81;21264;-85
2021/04/25 07:13:29;;;;;;;4.30;2.45;;;;;;;11.67;44.43;100755.72;1784877;80;21830;-85
2021/04/25 07:16:34;;;;;;;6.25;3.10;;;;;;;11.76;44.00;100754.66;1785277;80;21312;-85
2021/04/25 07:19:39;;;;;;;6.40;3.25;;;;;;;11.78;44.12;100753.98;1784584;80;21165;-84
2021/04/25 07:22:45;;;;;;;10.23;4.37;;;;;;;11.85;44.06;100748.16;1785317;80;21283;-85
2021/04/25 07:25:51;;;;;;;11.48;3.45;;;;;;;11.94;44.29;100755.34;1785123;80;21814;-85
2021/04/25 07:28:56;;;;;;;8.18;3.58;;;;;;;12.01;41.46;100752.78;1784606;80;21180;-85
2021/04/25 07:32:01;;;;;;;6.28;3.08;;;;;;;11.95;42.90;100761.20;1785200;80;21256;-86
2021/04/25 07:35:06;;;;;;;9.45;3.20;;;;;;;11.98;43.23;100760.83;1785131;80;21156;-85
2021/04/25 07:38:12;;;;;;;9.40;3.90;;;;;;;12.08;43.09;100754.30;1784446;80;21177;-85
2021/04/25 07:41:18;;;;;;;8.13;3.42;;;;;;;12.18;43.03;100745.34;1785175;80;21283;-85
2021/04/25 07:44:23;;;;;;;7.47;3.37;;;;;;;12.30;42.75;100754.06;1785340;80;21791;-86
2021/04/25 07:47:30;;;;;;;9.53;3.58;;;;;;;12.25;38.00;100735.40;1784757;80;21310;-85
2021/04/25 07:50:35;;;;;;;4.12;3.10;;;;;;;12.13;38.32;100745.87;1785167;80;21653;-86
2021/04/25 07:53:41;;;;;;;8.25;4.10;;;;;;;12.15;38.05;100736.97;1785231;80;21213;-85
2021/04/25 07:56:47;;;;;;;7.40;3.47;;;;;;;12.15;38.35;100738.34;1785166;80;21307;-85
2021/04/25 07:59:53;;;;;;;7.10;3.62;;;;;;;12.26;40.15;100738.47;1784985;80;21320;-86
2021/04/25 08:02:59;;;;;;;6.90;3.22;;;;;;;12.39;41.43;100729.69;1784875;80;21849;-84
2021/04/25 08:06:06;;;;;;;8.53;3.40;;;;;;;12.47;40.22;100729.66;1785196;80;21272;-85
2021/04/25 08:09:13;;;;;;;6.90;3.30;;;;;;;12.41;39.94;100728.45;1784588;80;21268;-85
2021/04/25 08:12:21;;;;;;;8.20;3.50;;;;;;;12.33;40.00;100738.61;1787576;78;21171;-86
2021/04/25 08:15:35;;;;;;;5.45;2.90;;;;;;;12.34;40.61;100731.59;1752908;81;21295;-85
2021/04/25 08:18:41;;;;;;;5.83;3.47;;;;;;;12.57;40.51;100716.58;1746862;81;21202;-85
2021/04/25 08:21:49;;;;;;;9.08;3.10;;;;;;;12.73;39.02;100708.23;1740542;81;21188;-86
2021/04/25 08:24:55;;;;;;;4.70;2.65;;;;;;;12.78;38.87;100696.71;1755762;81;21303;-86
2021/04/25 08:28:00;;;;;;;4.05;2.20;;;;;;;12.90;35.65;100709.00;1741742;81;21359;-86
2021/04/25 08:31:05;;;;;;;6.92;2.35;;;;;;;12.86;32.89;100706.28;1755516;81;21368;-86
2021/04/25 08:34:12;;;;;;;6.22;2.37;;;;;;;12.75;32.39;100716.27;1741764;82;21216;-86
2021/04/25 08:37:18;;;;;;;4.87;2.02;;;;;;;12.58;31.74;100711.42;1755539;81;21356;-86
2021/04/25 08:40:22;;;;;;;6.75;2.20;;;;;;;12.38;29.85;100705.52;1740110;82;21339;-85
2021/04/25 08:43:28;;;;;;;5.72;2.30;;;;;;;12.30;31.70;100700.06;1733640;81;21308;-86
2021/04/25 08:46:33;;;;;;;3.60;2.10;;;;;;;12.43;32.98;100693.48;1742412;82;21270;-86
2021/04/25 08:49:40;;;;;;;2.50;1.72;;;;;;;12.56;35.05;100687.40;1734427;81;21786;-86
2021/04/25 08:52:46;;;;;;;3.85;2.47;;;;;;;12.58;32.75;100689.98;1742348;81;21361;-86
2021/04/25 08:55:51;;;;;;;4.03;2.35;;;;;;;12.52;31.45;100702.02;1735499;81;21285;-86
2021/04/25 08:58:58;;;;;;;4.55;2.80;;;;;;;12.37;30.96;100696.08;1741162;81;21303;-86
2021/04/25 09:02:05;;;;;;;5.55;2.65;;;;;;;12.31;31.46;100699.02;1754671;81;21843;-86
2021/04/25 09:05:12;;;;;;;5.72;2.62;;;;;;;12.31;30.77;100694.05;1753582;81;21212;-87
2021/04/25 09:08:18;;;;;;;4.72;2.42;;;;;;;12.30;31.99;100694.58;1754785;81;21396;-87
2021/04/25 09:11:40;;;;;;;4.30;2.40;;;;;;;12.49;32.99;100679.05;1742134;82;21345;-84
2021/04/25 09:14:46;;;;;;;5.22;2.80;;;;;;;12.71;31.82;100679.28;1751384;81;21824;-84
2021/04/25 09:18:05;;;;;;;5.25;2.95;;;;;;;12.86;30.95;100666.47;1802882;79;21311;-83
2021/04/25 09:21:15;;;;;;;5.22;2.50;;;;;;;13.00;31.97;100660.19;1793982;79;21291;-84
2021/04/25 09:24:31;;;;;;;7.20;2.92;;;;;;;13.16;30.93;100644.60;1803439;79;21138;-84
2021/04/25 09:27:37;;;;;;;3.30;2.10;;;;;;;13.22;35.59;100648.00;1803064;79;21178;-84
2021/04/25 09:30:43;;;;;;;4.03;2.15;;;;;;;13.37;36.76;100651.66;1803155;79;21679;-84
2021/04/25 09:34:06;;;;;;;4.12;2.05;;;;;;;13.49;34.03;100645.18;1803408;79;21834;-84
2021/04/25 09:37:20;;;;;;;4.78;2.40;;;;;;;13.50;30.45;100653.26;1803615;79;21720;-83
2021/04/25 09:40:28;;;;;;;3.65;2.20;;;;;;;13.30;29.69;100647.94;1801837;79;21327;-83
2021/04/25 09:43:34;;;;;;;6.92;2.80;;;;;;;13.32;30.06;100641.76;1803342;79;21280;-84
2021/04/25 09:47:01;;;;;;;4.22;2.30;;;;;;;13.38;29.42;100639.63;1803082;79;21276;-83
2021/04/25 09:50:07;;;;;;;4.08;2.58;;;;;;;13.32;29.68;100633.52;1803296;79;22187;-84
2021/04/25 09:53:15;;;;;;;4.53;2.17;;;;;;;13.21;30.28;100629.27;1794782;79;21779;-84
2021/04/25 09:56:20;;;;;;;4.58;2.20;;;;;;;13.21;31.15;100622.92;1794845;79;21272;-84
2021/04/25 09:59:26;;;;;;;9.15;2.70;;;;;;;13.24;30.18;100618.47;1802965;79;21319;-85
2021/04/25 10:02:32;;;;;;;4.15;2.67;;;;;;;13.19;30.08;100624.49;1802715;79;21292;-85
2021/04/25 10:05:38;;;;;;;5.10;2.80;;;;;;;13.22;29.36;100615.92;1802644;79;21153;-85
2021/04/25 10:08:49;;;;;;;5.90;2.62;;;;;;;13.24;29.81;100615.73;1802015;79;21739;-85
2021/04/25 10:11:56;;;;;;;3.95;2.45;;;;;;;13.24;30.35;100617.10;1803268;79;21260;-85
2021/04/25 10:15:03;;;;;;;3.55;2.10;;;;;;;13.27;30.64;100619.48;1802522;78;21281;-85
2021/04/25 10:18:09;;;;;;;2.75;2.02;;;;;;;13.47;31.29;100618.42;1802494;79;21320;-85
2021/04/25 10:21:14;;;;;;;4.10;2.35;;;;;;;13.69;33.40;100607.88;1802644;79;21813;-84
2021/04/25 10:24:21;;;;;;;2.62;1.80;;;;;;;13.87;31.82;100612.97;1803162;79;21122;-85
2021/04/25 10:27:27;;;;;;;5.17;2.52;;;;;;;13.87;30.39;100611.59;1802832;79;21220;-85
2021/04/25 10:30:40;;;;;;;5.25;3.02;;;;;;;13.69;29.04;100606.50;1802276;79;21304;-85
2021/04/25 10:34:08;;;;;;;5.85;2.45;;;;;;;13.42;28.49;100603.88;1802234;79;21292;-84
2021/04/25 10:37:16;;;;;;;4.83;2.60;;;;;;;13.17;28.48;100599.61;1801919;79;21162;-84
2021/04/25 10:40:39;;;;;;;3.80;2.40;;;;;;;13.11;29.95;100603.11;1802295;79;21174;-84
2021/04/25 10:44:08;;;;;;;5.97;3.10;;;;;;;13.24;31.00;100596.50;1802010;79;21173;-85
2021/04/25 10:47:22;;;;;;;5.75;2.92;;;;;;;13.46;30.71;100587.34;1802783;79;21284;-85
2021/04/25 10:50:38;;;;;;;4.97;2.27;;;;;;;13.53;29.56;100592.41;1803248;79;21273;-84
2021/04/25 10:53:46;;;;;;;10.90;3.85;;;;;;;13.57;30.12;100591.52;1803475;79;21308;-85
2021/04/25 10:56:52;;;;;;;4.55;2.90;;;;;;;13.72;30.71;100590.13;1803499;79;21794;-85
2021/04/25 10:59:59;;;;;;;4.90;2.72;;;;;;;13.95;30.22;100587.28;1773811;79;21178;-85
2021/04/25 11:03:15;;;;;;;5.53;3.33;;;;;;;14.04;29.71;100588.35;1803366;79;21284;-84
2021/04/25 11:06:33;;;;;;;5.03;2.60;;;;;;;14.05;29.97;100586.45;1803148;79;21759;-85
2021/04/25 11:10:00;;;;;;;6.70;3.33;;;;;;;14.07;31.35;100584.38;1802829;79;21190;-84
2021/04/25 11:13:05;;;;;;;7.05;3.12;;;;;;;14.06;31.90;100576.63;1803125;79;21303;-84
2021/04/25 11:16:18;;;;;;;9.13;2.98;;;;;;;13.93;30.70;100580.61;1803645;78;21288;-84
2021/04/25 11:19:24;;;;;;;4.65;2.35;;;;;;;13.93;31.59;100580.61;1794117;79;21300;-84
2021/04/25 11:22:52;;;;;;;5.75;2.98;;;;;;;14.01;33.18;100577.72;1755828;79;21651;-84
2021/04/25 11:25:59;;;;;;;3.27;1.80;;;;;;;14.01;31.80;100566.72;1794875;79;21640;-84
2021/04/25 11:29:05;;;;;;;4.97;2.80;;;;;;;14.10;31.43;100563.34;1802912;79;21812;-84
2021/04/25 11:32:10;;;;;;;6.58;3.50;;;;;;;14.10;29.47;100559.22;1803180;79;21854;-84
2021/04/25 11:35:15;;;;;;;5.83;3.33;;;;;;;14.11;28.57;100550.44;1803462;79;21170;-84
2021/04/25 11:38:21;;;;;;;6.05;2.90;;;;;;;14.15;28.63;100542.13;1802483;79;21289;-85
2021/04/25 11:41:28;;;;;;;5.95;3.08;;;;;;;14.21;29.06;100537.22;1803023;79;21284;-85
2021/04/25 11:44:43;;;;;;;4.80;2.65;;;;;;;14.26;29.05;100538.37;1803246;79;21260;-85
2021/04/25 11:47:59;;;;;;;6.35;2.75;;;;;;;14.35;29.33;100523.97;1673588;78;21218;-85
2021/04/25 11:51:04;;;;;;;5.00;2.87;;;;;;;14.43;31.42;100517.47;1685575;84;21279;-85
2021/04/25 11:54:29;;;;;;;5.67;3.15;;;;;;;14.51;30.93;100511.34;1711208;84;21317;-84
2021/04/25 11:57:37;;;;;;;5.30;3.50;;;;;;;14.55;31.69;100502.17;1711433;84;21381;-85
2021/04/25 12:00:43;;;;;;;12.18;3.45;;;;;;;14.43;28.58;100504.55;1711358;84;21348;-85
2021/04/25 12:03:56;;;;;;;5.97;3.47;;;;;;;14.26;29.49;100503.97;1711136;84;21190;-85
2021/04/25 12:07:02;;;;;;;6.20;3.70;;;;;;;14.11;29.74;100492.15;1711345;84;21819;-85
2021/04/25 12:10:08;;;;;;;6.53;3.75;;;;;;;13.99;29.94;100493.20;1711513;84;21285;-85
2021/04/25 12:13:21;;;;;;;5.90;3.30;;;;;;;13.88;29.19;100495.09;1694566;84;21308;-84
2021/04/25 12:16:33;;;;;;;5.17;3.22;;;;;;;13.77;29.58;100489.55;1709456;84;21757;-85
2021/04/25 12:19:39;;;;;;;8.13;3.60;;;;;;;13.70;30.21;100490.00;1711548;84;21764;-84
2021/04/25 12:22:46;;;;;;;4.12;2.98;;;;;;;13.55;29.97;100484.53;1694430;84;21332;-84
2021/04/25 12:25:53;;;;;;;7.08;3.00;;;;;;;13.41;30.21;100487.27;1710972;84;21293;-85
2021/04/25 12:29:04;;;;;;;11.53;3.90;;;;;;;13.26;29.59;100474.39;1711162;84;21345;-85
2021/04/25 12:32:10;;;;;;;6.72;3.33;;;;;;;13.18;30.19;100464.02;1711388;84;21214;-85
2021/04/25 12:35:17;;;;;;;7.00;3.17;;;;;;;13.23;31.39;100468.45;1694563;84;21285;-85
2021/04/25 12:38:37;;;;;;;5.30;2.67;;;;;;;13.26;30.69;100469.42;1711275;84;21795;-85
2021/04/25 12:41:46;;;;;;;5.25;2.62;;;;;;;13.15;30.52;100463.86;1710746;84;21317;-84
2021/04/25 12:44:52;;;;;;;3.05;2.10;;;;;;;13.01;30.80;100458.69;1711269;84;21358;-85
2021/04/25 12:47:59;;;;;;;4.15;2.60;;;;;;;13.05;31.01;100456.42;1711295;83;21309;-84
2021/04/25 12:51:16;;;;;;;4.85;3.00;;;;;;;13.07;30.41;100450.73;1698046;84;21296;-85
2021/04/25 12:54:28;;;;;;;4.95;3.00;;;;;;;13.08;30.05;100451.06;1697361;84;21247;-85
2021/04/25 12:57:38;;;;;;;2.95;2.05;;;;;;;13.15;29.42;100447.91;1727347;83;21219;-85
2021/04/25 13:00:45;;;;;;;5.40;2.30;;;;;;;13.21;29.43;100451.25;1726529;83;21287;-85
2021/04/25 13:03:50;;;;;;;7.85;2.50;;;;;;;13.22;29.92;100444.25;1697377;84;21298;-85
2021/04/25 13:06:57;;;;;;;4.50;2.80;;;;;;;13.16;29.51;100445.48;1727148;83;21765;-85
2021/04/25 13:10:08;;;;;;;6.20;2.50;;;;;;;13.04;29.98;100445.97;1727142;83;21287;-84
2021/04/25 13:13:21;;;;;;;4.12;2.25;;;;;;;12.94;30.64;100442.66;1696663;84;21362;-84
2021/04/25 13:16:27;;;;;;;5.90;2.52;;;;;;;12.90;30.14;100434.46;1727370;83;21291;-84
2021/04/25 13:19:36;;;;;;;8.13;3.10;;;;;;;12.91;29.96;100437.53;1727169;83;21314;-85
2021/04/25 13:22:42;;;;;;;4.90;2.50;;;;;;;12.97;30.39;100433.17;1697022;84;21311;-85
2021/04/25 13:25:52;;;;;;;4.70;2.12;;;;;;;13.01;30.34;100424.37;1726984;83;21283;-84
2021/04/25 13:28:57;;;;;;;3.47;2.17;;;;;;;12.99;29.98;100421.50;1727251;83;21232;-85
2021/04/25 13:32:03;;;;;;;4.60;2.30;;;;;;;12.94;30.10;100415.20;1727296;83;21180;-85
2021/04/25 13:35:08;;;;;;;4.78;2.27;;;;;;;12.91;30.51;100410.08;1727469;83;21350;-85
2021/04/25 13:41:22;;;;;;;;;;;;;;;12.96;31.47;100409.52;1729963;83;21291;-84
2021/04/25 13:44:30;;;;;;;6.05;1.85;;;;;;;12.95;29.60;100396.31;1727473;83;20639;-84
2021/04/25 13:47:37;;;;;;;5.60;1.98;;;;;;;12.90;29.97;100396.03;1697731;84;21327;-84
2021/04/25 13:50:43;;;;;;;5.12;2.20;;;;;;;12.85;30.05;100396.27;1725894;83;21304;-85
2021/04/25 13:53:49;;;;;;;2.90;1.80;;;;;;;12.80;29.96;100389.97;1725751;83;21213;-85
2021/04/25 13:56:55;;;;;;;4.42;2.58;;;;;;;12.70;29.93;100386.63;1726908;83;21281;-85
2021/04/25 14:00:01;;;;;;;5.78;2.37;;;;;;;12.62;30.94;100386.22;1726887;83;21324;-84
2021/04/25 14:03:05;;;;;;;4.87;2.33;;;;;;;12.56;30.21;100384.20;1723934;83;21834;-83
2021/04/25 14:06:11;;;;;;;2.90;2.05;;;;;;;12.55;30.41;100387.99;1726853;83;21280;-83
2021/04/25 14:09:19;;;;;;;4.40;1.90;;;;;;;12.54;30.77;100384.92;1726807;83;21359;-84
2021/04/25 14:12:25;;;;;;;3.30;2.05;;;;;;;12.54;31.16;100385.77;1725191;83;21225;-84
2021/04/25 14:15:33;;;;;;;3.10;1.92;;;;;;;12.51;32.32;100381.17;1706666;83;21146;-84
2021/04/25 14:18:38;;;;;;;9.13;2.20;;;;;;;12.46;33.02;100378.98;1726845;83;21217;-85
2021/04/25 14:21:45;;;;;;;4.67;2.02;;;;;;;12.41;33.33;100381.44;1726920;83;21288;-84
2021/04/25 14:24:51;;;;;;;2.47;1.60;;;;;;;12.38;33.59;100379.61;1726713;83;21162;-84
2021/04/25 14:27:59;;;;;;;4.80;2.05;;;;;;;12.35;33.32;100382.20;1724470;83;21862;-84
2021/04/25 14:31:04;;;;;;;3.20;1.70;;;;;;;12.40;32.55;100383.86;1724567;83;21284;-84
2021/04/25 14:34:12;;;;;;;7.47;2.10;;;;;;;12.44;32.16;100386.56;1726976;83;21906;-84
2021/04/25 14:37:18;;;;;;;4.05;1.72;;;;;;;12.49;31.43;100382.73;1726911;83;21205;-84